sensor_id;sensor_type;location;lat;lon;timestamp;temperature;humidity
13458;DHT22;6801;53.018;11.560;2024-03-08T00:02:14;5.20;70.00
13458;DHT22;6801;53.018;11.560;2024-03-08T00:04:41;5.10;70.10
13458;DHT22;6801;53.018;11.560;2024-03-08T00:07:09;5.00;70.30
13458;DHT22;6801;53.018;11.560;2024-03-08T00:09:36;5.00;70.30
13458;DHT22;6801;53.018;11.560;2024-03-08T00:12:04;5.00;70.30
13458;DHT22;6801;53.018;11.560;2024-03-08T00:14:31;5.00;70.50
13458;DHT22;6801;53.018;11.560;2024-03-08T00:16:59;5.00;70.50
13458;DHT22;6801;53.018;11.560;2024-03-08T00:19:26;5.00;70.60
13458;DHT22;6801;53.018;11.560;2024-03-08T00:21:53;5.00;70.40
13458;DHT22;6801;53.018;11.560;2024-03-08T00:24:22;4.90;70.60
13458;DHT22;6801;53.018;11.560;2024-03-08T00:26:51;4.90;70.80
13458;DHT22;6801;53.018;11.560;2024-03-08T00:29:19;4.90;70.70
13458;DHT22;6801;53.018;11.560;2024-03-08T00:31:47;4.90;70.60
13458;DHT22;6801;53.018;11.560;2024-03-08T00:34:14;4.90;70.60
13458;DHT22;6801;53.018;11.560;2024-03-08T00:36:42;4.80;70.70
13458;DHT22;6801;53.018;11.560;2024-03-08T00:39:09;4.80;70.70
13458;DHT22;6801;53.018;11.560;2024-03-08T00:41:37;4.80;70.80
13458;DHT22;6801;53.018;11.560;2024-03-08T00:44:04;4.80;70.80
13458;DHT22;6801;53.018;11.560;2024-03-08T00:46:31;4.80;71.20
13458;DHT22;6801;53.018;11.560;2024-03-08T00:48:59;4.80;70.90
13458;DHT22;6801;53.018;11.560;2024-03-08T00:51:26;4.70;70.80
13458;DHT22;6801;53.018;11.560;2024-03-08T00:53:53;4.70;71.00
13458;DHT22;6801;53.018;11.560;2024-03-08T00:56:20;4.60;71.20
13458;DHT22;6801;53.018;11.560;2024-03-08T00:58:49;4.60;71.10
13458;DHT22;6801;53.018;11.560;2024-03-08T01:01:18;4.60;71.00
13458;DHT22;6801;53.018;11.560;2024-03-08T01:03:45;4.60;71.30
13458;DHT22;6801;53.018;11.560;2024-03-08T01:06:12;4.50;71.30
13458;DHT22;6801;53.018;11.560;2024-03-08T01:08:39;4.50;71.30
13458;DHT22;6801;53.018;11.560;2024-03-08T01:11:08;4.50;71.80
13458;DHT22;6801;53.018;11.560;2024-03-08T01:13:37;4.50;71.60
13458;DHT22;6801;53.018;11.560;2024-03-08T01:16:06;4.50;71.60
13458;DHT22;6801;53.018;11.560;2024-03-08T01:18:33;4.50;71.50
13458;DHT22;6801;53.018;11.560;2024-03-08T01:21:00;4.40;71.50
13458;DHT22;6801;53.018;11.560;2024-03-08T01:23:27;4.40;71.60
13458;DHT22;6801;53.018;11.560;2024-03-08T01:25:55;4.30;71.70
13458;DHT22;6801;53.018;11.560;2024-03-08T01:28:23;4.30;71.70
13458;DHT22;6801;53.018;11.560;2024-03-08T01:30:51;4.30;71.90
13458;DHT22;6801;53.018;11.560;2024-03-08T01:33:22;4.30;71.80
13458;DHT22;6801;53.018;11.560;2024-03-08T01:35:50;4.30;72.00
13458;DHT22;6801;53.018;11.560;2024-03-08T01:38:17;4.30;72.00
13458;DHT22;6801;53.018;11.560;2024-03-08T01:40:44;4.30;72.10
13458;DHT22;6801;53.018;11.560;2024-03-08T01:43:21;4.30;71.90
13458;DHT22;6801;53.018;11.560;2024-03-08T01:45:48;4.30;71.90
13458;DHT22;6801;53.018;11.560;2024-03-08T01:48:17;4.20;71.90
13458;DHT22;6801;53.018;11.560;2024-03-08T01:50:46;4.20;72.00
13458;DHT22;6801;53.018;11.560;2024-03-08T01:53:13;4.20;72.10
13458;DHT22;6801;53.018;11.560;2024-03-08T01:55:41;4.10;72.00
13458;DHT22;6801;53.018;11.560;2024-03-08T01:58:10;4.10;72.20
13458;DHT22;6801;53.018;11.560;2024-03-08T02:00:38;4.10;72.20
13458;DHT22;6801;53.018;11.560;2024-03-08T02:03:06;4.10;72.10
13458;DHT22;6801;53.018;11.560;2024-03-08T02:05:33;4.00;72.30
13458;DHT22;6801;53.018;11.560;2024-03-08T02:08:03;4.00;72.20
13458;DHT22;6801;53.018;11.560;2024-03-08T02:10:31;4.00;72.10
13458;DHT22;6801;53.018;11.560;2024-03-08T02:12:59;4.00;72.10
13458;DHT22;6801;53.018;11.560;2024-03-08T02:15:26;4.00;72.20
13458;DHT22;6801;53.018;11.560;2024-03-08T02:17:53;4.00;72.20
13458;DHT22;6801;53.018;11.560;2024-03-08T02:20:20;4.00;72.20
13458;DHT22;6801;53.018;11.560;2024-03-08T02:22:50;4.00;72.10
13458;DHT22;6801;53.018;11.560;2024-03-08T02:25:18;3.90;72.10
13458;DHT22;6801;53.018;11.560;2024-03-08T02:27:45;3.90;72.10
13458;DHT22;6801;53.018;11.560;2024-03-08T02:30:13;3.90;72.30
13458;DHT22;6801;53.018;11.560;2024-03-08T02:32:40;3.90;72.40
13458;DHT22;6801;53.018;11.560;2024-03-08T02:35:07;3.80;72.20
13458;DHT22;6801;53.018;11.560;2024-03-08T02:37:34;3.80;72.10
13458;DHT22;6801;53.018;11.560;2024-03-08T02:40:03;3.80;72.20
13458;DHT22;6801;53.018;11.560;2024-03-08T02:42:31;3.80;72.30
13458;DHT22;6801;53.018;11.560;2024-03-08T02:44:58;3.80;72.40
13458;DHT22;6801;53.018;11.560;2024-03-08T02:47:25;3.80;72.40
13458;DHT22;6801;53.018;11.560;2024-03-08T02:49:53;3.80;72.30
13458;DHT22;6801;53.018;11.560;2024-03-08T02:52:20;3.70;72.40
13458;DHT22;6801;53.018;11.560;2024-03-08T02:54:48;3.70;72.30
13458;DHT22;6801;53.018;11.560;2024-03-08T02:57:17;3.70;72.30
13458;DHT22;6801;53.018;11.560;2024-03-08T02:59:44;3.70;72.40
13458;DHT22;6801;53.018;11.560;2024-03-08T03:02:11;3.60;72.70
13458;DHT22;6801;53.018;11.560;2024-03-08T03:04:39;3.70;72.40
13458;DHT22;6801;53.018;11.560;2024-03-08T03:07:06;3.60;72.30
13458;DHT22;6801;53.018;11.560;2024-03-08T03:09:33;3.60;72.40
13458;DHT22;6801;53.018;11.560;2024-03-08T03:12:00;3.60;72.60
13458;DHT22;6801;53.018;11.560;2024-03-08T03:14:29;3.60;72.70
13458;DHT22;6801;53.018;11.560;2024-03-08T03:16:56;3.60;72.80
13458;DHT22;6801;53.018;11.560;2024-03-08T03:19:23;3.60;72.60
13458;DHT22;6801;53.018;11.560;2024-03-08T03:21:50;3.60;72.60
13458;DHT22;6801;53.018;11.560;2024-03-08T03:24:18;3.60;72.80
13458;DHT22;6801;53.018;11.560;2024-03-08T03:26:46;3.60;72.80
13458;DHT22;6801;53.018;11.560;2024-03-08T03:29:15;3.50;72.60
13458;DHT22;6801;53.018;11.560;2024-03-08T03:31:44;3.50;72.80
13458;DHT22;6801;53.018;11.560;2024-03-08T03:34:12;3.50;73.20
13458;DHT22;6801;53.018;11.560;2024-03-08T03:36:39;3.50;72.70
13458;DHT22;6801;53.018;11.560;2024-03-08T03:39:08;3.50;72.90
13458;DHT22;6801;53.018;11.560;2024-03-08T03:41:38;3.50;72.90
13458;DHT22;6801;53.018;11.560;2024-03-08T03:44:04;3.40;72.70
13458;DHT22;6801;53.018;11.560;2024-03-08T03:46:32;3.40;72.70
13458;DHT22;6801;53.018;11.560;2024-03-08T03:49:01;3.40;72.70
13458;DHT22;6801;53.018;11.560;2024-03-08T03:51:29;3.30;72.90
13458;DHT22;6801;53.018;11.560;2024-03-08T03:53:56;3.30;73.10
13458;DHT22;6801;53.018;11.560;2024-03-08T03:56:25;3.30;73.10
13458;DHT22;6801;53.018;11.560;2024-03-08T03:58:53;3.30;72.90
13458;DHT22;6801;53.018;11.560;2024-03-08T04:01:20;3.30;73.00
13458;DHT22;6801;53.018;11.560;2024-03-08T04:03:47;3.20;72.90
13458;DHT22;6801;53.018;11.560;2024-03-08T04:06:15;3.20;73.00
13458;DHT22;6801;53.018;11.560;2024-03-08T04:08:42;3.20;73.10
13458;DHT22;6801;53.018;11.560;2024-03-08T04:11:09;3.20;73.10
13458;DHT22;6801;53.018;11.560;2024-03-08T04:13:36;3.20;73.20
13458;DHT22;6801;53.018;11.560;2024-03-08T04:16:04;3.20;73.20
13458;DHT22;6801;53.018;11.560;2024-03-08T04:18:34;3.20;73.00
13458;DHT22;6801;53.018;11.560;2024-03-08T04:21:04;3.10;72.90
13458;DHT22;6801;53.018;11.560;2024-03-08T04:23:35;3.20;72.90
13458;DHT22;6801;53.018;11.560;2024-03-08T04:26:02;3.10;72.90
13458;DHT22;6801;53.018;11.560;2024-03-08T04:28:30;3.20;73.00
13458;DHT22;6801;53.018;11.560;2024-03-08T04:30:57;3.10;73.00
13458;DHT22;6801;53.018;11.560;2024-03-08T04:33:26;3.10;73.10
13458;DHT22;6801;53.018;11.560;2024-03-08T04:35:53;3.10;73.00
13458;DHT22;6801;53.018;11.560;2024-03-08T04:38:20;3.10;73.20
13458;DHT22;6801;53.018;11.560;2024-03-08T04:40:49;3.10;73.10
13458;DHT22;6801;53.018;11.560;2024-03-08T04:43:17;3.10;73.10
13458;DHT22;6801;53.018;11.560;2024-03-08T04:45:46;3.00;73.40
13458;DHT22;6801;53.018;11.560;2024-03-08T04:48:14;3.00;73.30
13458;DHT22;6801;53.018;11.560;2024-03-08T04:50:41;3.10;73.30
13458;DHT22;6801;53.018;11.560;2024-03-08T04:53:08;3.10;73.20
13458;DHT22;6801;53.018;11.560;2024-03-08T04:55:35;3.00;73.00
13458;DHT22;6801;53.018;11.560;2024-03-08T04:58:04;3.00;73.10
13458;DHT22;6801;53.018;11.560;2024-03-08T05:00:32;3.00;73.20
13458;DHT22;6801;53.018;11.560;2024-03-08T05:02:59;3.00;73.30
13458;DHT22;6801;53.018;11.560;2024-03-08T05:05:26;3.00;73.30
13458;DHT22;6801;53.018;11.560;2024-03-08T05:07:54;3.00;73.30
13458;DHT22;6801;53.018;11.560;2024-03-08T05:10:21;3.00;73.30
13458;DHT22;6801;53.018;11.560;2024-03-08T05:12:49;2.90;73.30
13458;DHT22;6801;53.018;11.560;2024-03-08T05:15:17;2.90;73.40
13458;DHT22;6801;53.018;11.560;2024-03-08T05:17:46;2.90;73.30
13458;DHT22;6801;53.018;11.560;2024-03-08T05:20:13;2.90;73.20
13458;DHT22;6801;53.018;11.560;2024-03-08T05:22:40;2.90;73.20
13458;DHT22;6801;53.018;11.560;2024-03-08T05:25:08;2.80;73.40
13458;DHT22;6801;53.018;11.560;2024-03-08T05:27:36;2.90;73.40
13458;DHT22;6801;53.018;11.560;2024-03-08T05:30:03;2.90;73.40
13458;DHT22;6801;53.018;11.560;2024-03-08T05:32:32;2.90;73.30
13458;DHT22;6801;53.018;11.560;2024-03-08T05:34:59;2.90;73.30
13458;DHT22;6801;53.018;11.560;2024-03-08T05:37:26;2.80;73.20
13458;DHT22;6801;53.018;11.560;2024-03-08T05:39:53;2.80;73.30
13458;DHT22;6801;53.018;11.560;2024-03-08T05:42:20;2.80;73.60
13458;DHT22;6801;53.018;11.560;2024-03-08T05:44:47;2.80;73.60
13458;DHT22;6801;53.018;11.560;2024-03-08T05:47:15;2.70;73.40
13458;DHT22;6801;53.018;11.560;2024-03-08T05:49:45;2.70;73.40
13458;DHT22;6801;53.018;11.560;2024-03-08T05:52:12;2.70;73.50
13458;DHT22;6801;53.018;11.560;2024-03-08T05:54:40;2.70;73.40
13458;DHT22;6801;53.018;11.560;2024-03-08T05:57:07;2.80;73.50
13458;DHT22;6801;53.018;11.560;2024-03-08T05:59:34;2.70;73.30
13458;DHT22;6801;53.018;11.560;2024-03-08T06:02:01;2.70;73.30
13458;DHT22;6801;53.018;11.560;2024-03-08T06:04:29;2.60;73.50
13458;DHT22;6801;53.018;11.560;2024-03-08T06:06:58;2.70;73.70
13458;DHT22;6801;53.018;11.560;2024-03-08T06:09:25;2.70;73.70
13458;DHT22;6801;53.018;11.560;2024-03-08T06:11:52;2.70;73.40
13458;DHT22;6801;53.018;11.560;2024-03-08T06:14:19;2.70;73.60
13458;DHT22;6801;53.018;11.560;2024-03-08T06:16:47;2.70;73.60
13458;DHT22;6801;53.018;11.560;2024-03-08T06:19:15;2.70;73.60
13458;DHT22;6801;53.018;11.560;2024-03-08T06:21:42;2.70;73.70
13458;DHT22;6801;53.018;11.560;2024-03-08T06:24:11;2.70;74.00
13458;DHT22;6801;53.018;11.560;2024-03-08T06:26:38;2.70;74.10
13458;DHT22;6801;53.018;11.560;2024-03-08T06:29:05;2.70;73.90
13458;DHT22;6801;53.018;11.560;2024-03-08T06:31:33;2.70;73.90
13458;DHT22;6801;53.018;11.560;2024-03-08T06:34:00;2.70;74.30
13458;DHT22;6801;53.018;11.560;2024-03-08T06:36:27;2.90;74.50
13458;DHT22;6801;53.018;11.560;2024-03-08T06:38:54;3.00;74.10
13458;DHT22;6801;53.018;11.560;2024-03-08T06:41:24;3.00;73.80
13458;DHT22;6801;53.018;11.560;2024-03-08T06:43:52;3.00;74.40
13458;DHT22;6801;53.018;11.560;2024-03-08T06:46:23;3.10;74.10
13458;DHT22;6801;53.018;11.560;2024-03-08T06:48:50;3.10;73.90
13458;DHT22;6801;53.018;11.560;2024-03-08T06:51:17;3.10;74.00
13458;DHT22;6801;53.018;11.560;2024-03-08T06:53:44;3.20;74.20
13458;DHT22;6801;53.018;11.560;2024-03-08T06:56:11;3.20;74.50
13458;DHT22;6801;53.018;11.560;2024-03-08T06:58:40;3.20;74.40
13458;DHT22;6801;53.018;11.560;2024-03-08T07:01:07;3.20;74.40
13458;DHT22;6801;53.018;11.560;2024-03-08T07:03:41;3.20;74.30
13458;DHT22;6801;53.018;11.560;2024-03-08T07:06:10;3.20;74.40
13458;DHT22;6801;53.018;11.560;2024-03-08T07:08:37;3.20;74.40
13458;DHT22;6801;53.018;11.560;2024-03-08T07:11:04;3.30;74.70
13458;DHT22;6801;53.018;11.560;2024-03-08T07:13:31;3.30;74.60
13458;DHT22;6801;53.018;11.560;2024-03-08T07:16:00;3.30;74.90
13458;DHT22;6801;53.018;11.560;2024-03-08T07:18:27;3.40;74.80
13458;DHT22;6801;53.018;11.560;2024-03-08T07:20:55;3.40;74.90
13458;DHT22;6801;53.018;11.560;2024-03-08T07:23:23;3.50;74.60
13458;DHT22;6801;53.018;11.560;2024-03-08T07:26:07;3.50;74.20
13458;DHT22;6801;53.018;11.560;2024-03-08T07:28:34;3.50;74.20
13458;DHT22;6801;53.018;11.560;2024-03-08T07:31:03;3.50;74.30
13458;DHT22;6801;53.018;11.560;2024-03-08T07:33:42;3.70;74.50
13458;DHT22;6801;53.018;11.560;2024-03-08T07:36:09;3.70;74.00
13458;DHT22;6801;53.018;11.560;2024-03-08T07:38:37;3.80;74.30
13458;DHT22;6801;53.018;11.560;2024-03-08T07:41:04;3.80;74.30
13458;DHT22;6801;53.018;11.560;2024-03-08T07:43:31;3.80;74.00
13458;DHT22;6801;53.018;11.560;2024-03-08T07:45:58;3.90;74.50
13458;DHT22;6801;53.018;11.560;2024-03-08T07:48:27;3.90;74.20
13458;DHT22;6801;53.018;11.560;2024-03-08T07:50:54;4.00;74.10
13458;DHT22;6801;53.018;11.560;2024-03-08T07:53:21;4.00;74.00
13458;DHT22;6801;53.018;11.560;2024-03-08T07:55:50;4.10;74.00
13458;DHT22;6801;53.018;11.560;2024-03-08T07:58:17;4.20;73.70
13458;DHT22;6801;53.018;11.560;2024-03-08T08:00:44;4.30;73.40
13458;DHT22;6801;53.018;11.560;2024-03-08T08:03:11;4.30;73.00
13458;DHT22;6801;53.018;11.560;2024-03-08T08:05:40;4.40;73.20
13458;DHT22;6801;53.018;11.560;2024-03-08T08:08:07;4.40;73.00
13458;DHT22;6801;53.018;11.560;2024-03-08T08:10:36;4.50;73.20
13458;DHT22;6801;53.018;11.560;2024-03-08T08:13:03;4.50;73.00
13458;DHT22;6801;53.018;11.560;2024-03-08T08:15:30;4.60;72.80
13458;DHT22;6801;53.018;11.560;2024-03-08T08:17:59;4.60;73.00
13458;DHT22;6801;53.018;11.560;2024-03-08T08:20:26;4.70;73.00
13458;DHT22;6801;53.018;11.560;2024-03-08T08:22:56;4.80;72.70
13458;DHT22;6801;53.018;11.560;2024-03-08T08:25:24;4.80;72.70
13458;DHT22;6801;53.018;11.560;2024-03-08T08:27:51;4.80;72.70
13458;DHT22;6801;53.018;11.560;2024-03-08T08:30:19;4.90;72.70
13458;DHT22;6801;53.018;11.560;2024-03-08T08:32:46;5.00;72.50
13458;DHT22;6801;53.018;11.560;2024-03-08T08:35:14;5.10;71.90
13458;DHT22;6801;53.018;11.560;2024-03-08T08:37:41;5.20;71.80
13458;DHT22;6801;53.018;11.560;2024-03-08T08:40:11;5.30;71.40
13458;DHT22;6801;53.018;11.560;2024-03-08T08:42:43;5.30;71.10
13458;DHT22;6801;53.018;11.560;2024-03-08T08:45:11;5.50;70.40
13458;DHT22;6801;53.018;11.560;2024-03-08T08:47:38;5.50;70.40
13458;DHT22;6801;53.018;11.560;2024-03-08T08:50:08;5.50;70.70
13458;DHT22;6801;53.018;11.560;2024-03-08T08:52:37;5.60;70.00
13458;DHT22;6801;53.018;11.560;2024-03-08T08:55:05;5.70;69.80
13458;DHT22;6801;53.018;11.560;2024-03-08T08:57:34;5.70;70.20
13458;DHT22;6801;53.018;11.560;2024-03-08T09:00:02;5.80;69.20
13458;DHT22;6801;53.018;11.560;2024-03-08T09:02:33;5.90;69.00
13458;DHT22;6801;53.018;11.560;2024-03-08T09:05:00;6.00;68.80
13458;DHT22;6801;53.018;11.560;2024-03-08T09:07:27;6.00;69.00
13458;DHT22;6801;53.018;11.560;2024-03-08T09:09:54;6.10;68.40
13458;DHT22;6801;53.018;11.560;2024-03-08T09:12:23;6.20;68.80
13458;DHT22;6801;53.018;11.560;2024-03-08T09:14:52;6.20;68.50
13458;DHT22;6801;53.018;11.560;2024-03-08T09:17:19;6.30;68.60
13458;DHT22;6801;53.018;11.560;2024-03-08T09:19:46;6.30;68.30
13458;DHT22;6801;53.018;11.560;2024-03-08T09:22:14;6.50;67.50
13458;DHT22;6801;53.018;11.560;2024-03-08T09:24:41;6.50;67.10
13458;DHT22;6801;53.018;11.560;2024-03-08T09:27:08;6.50;67.10
13458;DHT22;6801;53.018;11.560;2024-03-08T09:29:35;6.70;66.70
13458;DHT22;6801;53.018;11.560;2024-03-08T09:32:04;6.80;66.60
13458;DHT22;6801;53.018;11.560;2024-03-08T09:34:33;6.80;66.20
13458;DHT22;6801;53.018;11.560;2024-03-08T09:37:00;6.90;66.20
13458;DHT22;6801;53.018;11.560;2024-03-08T09:39:29;6.90;66.30
13458;DHT22;6801;53.018;11.560;2024-03-08T09:41:57;6.90;66.30
13458;DHT22;6801;53.018;11.560;2024-03-08T09:44:24;7.00;65.90
13458;DHT22;6801;53.018;11.560;2024-03-08T09:46:54;7.10;65.70
13458;DHT22;6801;53.018;11.560;2024-03-08T09:49:25;7.20;65.60
13458;DHT22;6801;53.018;11.560;2024-03-08T09:51:52;7.30;64.60
13458;DHT22;6801;53.018;11.560;2024-03-08T09:54:19;7.30;64.40
13458;DHT22;6801;53.018;11.560;2024-03-08T09:56:48;7.40;63.80
13458;DHT22;6801;53.018;11.560;2024-03-08T09:59:17;7.50;63.20
13458;DHT22;6801;53.018;11.560;2024-03-08T10:02:13;7.50;63.30
13458;DHT22;6801;53.018;11.560;2024-03-08T10:04:43;7.60;62.40
13458;DHT22;6801;53.018;11.560;2024-03-08T10:07:12;7.70;62.60
13458;DHT22;6801;53.018;11.560;2024-03-08T10:09:39;7.70;62.10
13458;DHT22;6801;53.018;11.560;2024-03-08T10:12:07;7.80;61.80
13458;DHT22;6801;53.018;11.560;2024-03-08T10:14:39;7.90;61.20
13458;DHT22;6801;53.018;11.560;2024-03-08T10:17:06;8.00;60.80
13458;DHT22;6801;53.018;11.560;2024-03-08T10:19:34;8.00;61.40
13458;DHT22;6801;53.018;11.560;2024-03-08T10:22:02;8.00;62.00
13458;DHT22;6801;53.018;11.560;2024-03-08T10:24:30;8.00;61.40
13458;DHT22;6801;53.018;11.560;2024-03-08T10:27:00;8.10;61.30
13458;DHT22;6801;53.018;11.560;2024-03-08T10:29:31;8.10;61.00
13458;DHT22;6801;53.018;11.560;2024-03-08T10:31:58;8.20;61.60
13458;DHT22;6801;53.018;11.560;2024-03-08T10:34:25;8.30;60.80
13458;DHT22;6801;53.018;11.560;2024-03-08T10:36:52;8.40;60.00
13458;DHT22;6801;53.018;11.560;2024-03-08T10:39:23;8.50;59.20
13458;DHT22;6801;53.018;11.560;2024-03-08T10:41:53;8.50;58.80
13458;DHT22;6801;53.018;11.560;2024-03-08T10:44:36;8.40;59.60
13458;DHT22;6801;53.018;11.560;2024-03-08T10:47:15;8.40;60.20
13458;DHT22;6801;53.018;11.560;2024-03-08T10:49:51;8.60;58.90
13458;DHT22;6801;53.018;11.560;2024-03-08T10:52:21;8.70;58.50
13458;DHT22;6801;53.018;11.560;2024-03-08T10:54:52;8.80;57.80
13458;DHT22;6801;53.018;11.560;2024-03-08T10:57:22;8.80;57.60
13458;DHT22;6801;53.018;11.560;2024-03-08T10:59:51;8.90;57.20
13458;DHT22;6801;53.018;11.560;2024-03-08T11:02:19;9.00;56.60
13458;DHT22;6801;53.018;11.560;2024-03-08T11:04:47;9.00;56.50
13458;DHT22;6801;53.018;11.560;2024-03-08T11:07:14;9.00;56.20
13458;DHT22;6801;53.018;11.560;2024-03-08T11:09:45;9.10;56.10
13458;DHT22;6801;53.018;11.560;2024-03-08T11:12:23;9.20;55.70
13458;DHT22;6801;53.018;11.560;2024-03-08T11:14:57;9.10;56.00
13458;DHT22;6801;53.018;11.560;2024-03-08T11:17:40;9.10;56.50
13458;DHT22;6801;53.018;11.560;2024-03-08T11:20:10;9.10;56.20
13458;DHT22;6801;53.018;11.560;2024-03-08T11:22:41;9.10;57.30
13458;DHT22;6801;53.018;11.560;2024-03-08T11:25:31;9.10;56.70
13458;DHT22;6801;53.018;11.560;2024-03-08T11:28:11;9.30;55.70
13458;DHT22;6801;53.018;11.560;2024-03-08T11:30:43;9.40;55.00
13458;DHT22;6801;53.018;11.560;2024-03-08T11:33:15;9.40;55.10
13458;DHT22;6801;53.018;11.560;2024-03-08T11:35:42;9.40;55.80
13458;DHT22;6801;53.018;11.560;2024-03-08T11:38:12;9.40;55.30
13458;DHT22;6801;53.018;11.560;2024-03-08T11:40:40;9.60;54.00
13458;DHT22;6801;53.018;11.560;2024-03-08T11:43:09;9.60;54.00
13458;DHT22;6801;53.018;11.560;2024-03-08T11:45:36;9.60;55.10
13458;DHT22;6801;53.018;11.560;2024-03-08T11:48:06;9.60;54.10
13458;DHT22;6801;53.018;11.560;2024-03-08T11:50:34;9.70;54.70
13458;DHT22;6801;53.018;11.560;2024-03-08T11:53:02;9.70;54.40
13458;DHT22;6801;53.018;11.560;2024-03-08T11:55:30;9.80;53.70
13458;DHT22;6801;53.018;11.560;2024-03-08T11:58:02;9.80;54.10
13458;DHT22;6801;53.018;11.560;2024-03-08T12:00:31;9.90;53.10
13458;DHT22;6801;53.018;11.560;2024-03-08T12:03:05;10.00;52.60
13458;DHT22;6801;53.018;11.560;2024-03-08T12:05:33;10.10;51.90
13458;DHT22;6801;53.018;11.560;2024-03-08T12:08:00;10.10;52.60
13458;DHT22;6801;53.018;11.560;2024-03-08T12:10:28;10.00;53.40
13458;DHT22;6801;53.018;11.560;2024-03-08T12:12:57;10.00;53.40
13458;DHT22;6801;53.018;11.560;2024-03-08T12:15:25;10.10;51.40
13458;DHT22;6801;53.018;11.560;2024-03-08T12:17:54;10.10;51.60
13458;DHT22;6801;53.018;11.560;2024-03-08T12:20:23;10.20;52.30
13458;DHT22;6801;53.018;11.560;2024-03-08T12:22:51;10.10;52.70
13458;DHT22;6801;53.018;11.560;2024-03-08T12:25:19;10.10;52.90
13458;DHT22;6801;53.018;11.560;2024-03-08T12:27:46;10.20;52.20
13458;DHT22;6801;53.018;11.560;2024-03-08T12:30:19;10.20;52.70
13458;DHT22;6801;53.018;11.560;2024-03-08T12:32:49;10.20;52.70
13458;DHT22;6801;53.018;11.560;2024-03-08T12:35:19;10.20;52.80
13458;DHT22;6801;53.018;11.560;2024-03-08T12:37:48;10.30;52.00
13458;DHT22;6801;53.018;11.560;2024-03-08T12:40:17;10.30;50.60
13458;DHT22;6801;53.018;11.560;2024-03-08T12:42:44;10.30;51.00
13458;DHT22;6801;53.018;11.560;2024-03-08T12:45:13;10.40;50.60
13458;DHT22;6801;53.018;11.560;2024-03-08T12:47:41;10.30;51.40
13458;DHT22;6801;53.018;11.560;2024-03-08T12:50:10;10.30;50.90
13458;DHT22;6801;53.018;11.560;2024-03-08T12:52:39;10.40;49.70
13458;DHT22;6801;53.018;11.560;2024-03-08T12:55:06;10.40;50.60
13458;DHT22;6801;53.018;11.560;2024-03-08T12:57:35;10.40;50.30
13458;DHT22;6801;53.018;11.560;2024-03-08T13:00:02;10.50;50.10
13458;DHT22;6801;53.018;11.560;2024-03-08T13:02:29;10.50;49.90
13458;DHT22;6801;53.018;11.560;2024-03-08T13:04:58;10.50;49.60
13458;DHT22;6801;53.018;11.560;2024-03-08T13:07:25;10.50;48.70
13458;DHT22;6801;53.018;11.560;2024-03-08T13:09:54;10.60;48.80
13458;DHT22;6801;53.018;11.560;2024-03-08T13:12:22;10.60;49.20
13458;DHT22;6801;53.018;11.560;2024-03-08T13:14:49;10.50;49.40
13458;DHT22;6801;53.018;11.560;2024-03-08T13:17:16;10.50;49.80
13458;DHT22;6801;53.018;11.560;2024-03-08T13:19:44;10.50;50.50
13458;DHT22;6801;53.018;11.560;2024-03-08T13:22:11;10.50;51.40
13458;DHT22;6801;53.018;11.560;2024-03-08T13:24:39;10.50;51.10
13458;DHT22;6801;53.018;11.560;2024-03-08T13:27:08;10.60;51.30
13458;DHT22;6801;53.018;11.560;2024-03-08T13:29:46;10.50;51.70
13458;DHT22;6801;53.018;11.560;2024-03-08T13:32:14;10.60;51.00
13458;DHT22;6801;53.018;11.560;2024-03-08T13:34:42;10.60;50.70
13458;DHT22;6801;53.018;11.560;2024-03-08T13:37:09;10.70;50.30
13458;DHT22;6801;53.018;11.560;2024-03-08T13:39:37;10.70;50.00
13458;DHT22;6801;53.018;11.560;2024-03-08T13:42:11;10.70;49.30
13458;DHT22;6801;53.018;11.560;2024-03-08T13:44:44;10.70;49.50
13458;DHT22;6801;53.018;11.560;2024-03-08T13:47:13;10.70;49.50
13458;DHT22;6801;53.018;11.560;2024-03-08T13:49:40;10.70;49.60
13458;DHT22;6801;53.018;11.560;2024-03-08T13:52:09;10.70;49.10
13458;DHT22;6801;53.018;11.560;2024-03-08T13:54:36;10.70;49.40
13458;DHT22;6801;53.018;11.560;2024-03-08T13:57:04;10.70;49.10
13458;DHT22;6801;53.018;11.560;2024-03-08T13:59:34;10.70;49.60
13458;DHT22;6801;53.018;11.560;2024-03-08T14:02:03;10.70;49.60
13458;DHT22;6801;53.018;11.560;2024-03-08T14:04:30;10.70;49.30
13458;DHT22;6801;53.018;11.560;2024-03-08T14:06:57;10.70;49.40
13458;DHT22;6801;53.018;11.560;2024-03-08T14:09:29;10.70;48.80
13458;DHT22;6801;53.018;11.560;2024-03-08T14:11:56;10.70;48.10
13458;DHT22;6801;53.018;11.560;2024-03-08T14:14:24;10.70;48.90
13458;DHT22;6801;53.018;11.560;2024-03-08T14:16:52;10.60;48.90
13458;DHT22;6801;53.018;11.560;2024-03-08T14:19:21;10.60;49.10
13458;DHT22;6801;53.018;11.560;2024-03-08T14:21:48;10.50;49.40
13458;DHT22;6801;53.018;11.560;2024-03-08T14:24:15;10.50;49.70
13458;DHT22;6801;53.018;11.560;2024-03-08T14:26:42;10.50;49.60
13458;DHT22;6801;53.018;11.560;2024-03-08T14:29:09;10.50;49.80
13458;DHT22;6801;53.018;11.560;2024-03-08T14:31:37;10.60;49.60
13458;DHT22;6801;53.018;11.560;2024-03-08T14:34:05;10.60;48.70
13458;DHT22;6801;53.018;11.560;2024-03-08T14:36:32;10.60;49.60
13458;DHT22;6801;53.018;11.560;2024-03-08T14:39:00;10.60;49.00
13458;DHT22;6801;53.018;11.560;2024-03-08T14:41:27;10.60;49.60
13458;DHT22;6801;53.018;11.560;2024-03-08T14:43:55;10.60;49.40
13458;DHT22;6801;53.018;11.560;2024-03-08T14:46:23;10.50;48.80
13458;DHT22;6801;53.018;11.560;2024-03-08T14:48:50;10.50;49.50
13458;DHT22;6801;53.018;11.560;2024-03-08T14:51:19;10.50;49.60
13458;DHT22;6801;53.018;11.560;2024-03-08T14:53:48;10.60;50.10
13458;DHT22;6801;53.018;11.560;2024-03-08T14:56:15;10.60;49.80
13458;DHT22;6801;53.018;11.560;2024-03-08T14:58:43;10.50;49.80
13458;DHT22;6801;53.018;11.560;2024-03-08T15:01:12;10.60;48.90
13458;DHT22;6801;53.018;11.560;2024-03-08T15:03:40;10.60;48.20
13458;DHT22;6801;53.018;11.560;2024-03-08T15:06:08;10.70;48.30
13458;DHT22;6801;53.018;11.560;2024-03-08T15:08:37;10.60;48.00
13458;DHT22;6801;53.018;11.560;2024-03-08T15:11:05;10.50;48.80
13458;DHT22;6801;53.018;11.560;2024-03-08T15:13:32;10.50;48.60
13458;DHT22;6801;53.018;11.560;2024-03-08T15:16:07;10.50;48.40
13458;DHT22;6801;53.018;11.560;2024-03-08T15:18:40;10.50;49.00
13458;DHT22;6801;53.018;11.560;2024-03-08T15:21:12;10.50;49.30
13458;DHT22;6801;53.018;11.560;2024-03-08T15:23:45;10.50;49.30
13458;DHT22;6801;53.018;11.560;2024-03-08T15:26:15;10.50;49.20
13458;DHT22;6801;53.018;11.560;2024-03-08T15:28:42;10.50;49.30
13458;DHT22;6801;53.018;11.560;2024-03-08T15:31:11;10.50;49.00
13458;DHT22;6801;53.018;11.560;2024-03-08T15:33:40;10.40;49.40
13458;DHT22;6801;53.018;11.560;2024-03-08T15:36:11;10.40;49.50
13458;DHT22;6801;53.018;11.560;2024-03-08T15:38:41;10.40;49.80
13458;DHT22;6801;53.018;11.560;2024-03-08T15:41:10;10.40;49.80
13458;DHT22;6801;53.018;11.560;2024-03-08T15:43:38;10.40;48.90
13458;DHT22;6801;53.018;11.560;2024-03-08T15:46:06;10.40;49.00
13458;DHT22;6801;53.018;11.560;2024-03-08T15:48:34;10.40;49.30
13458;DHT22;6801;53.018;11.560;2024-03-08T15:51:03;10.30;49.20